sensor_id;sensor_type;location;lat;lon;timestamp;P1;durP1;ratioP1;P2;durP2;ratioP2
2061;SDS011;11070;51.336;12.340;2023-02-01T00:02:00;10.70;;;6.77;;
2061;SDS011;11070;51.336;12.340;2023-02-01T00:04:26;12.00;;;6.20;;
2061;SDS011;11070;51.336;12.340;2023-02-01T00:06:52;9.20;;;6.00;;
2061;SDS011;11070;51.336;12.340;2023-02-01T00:09:18;12.27;;;6.20;;
2061;SDS011;11070;51.336;12.340;2023-02-01T00:11:43;10.40;;;6.03;;
2061;SDS011;11070;51.336;12.340;2023-02-01T00:14:09;7.83;;;6.00;;
2061;SDS011;11070;51.336;12.340;2023-02-01T00:16:35;15.03;;;6.10;;
2061;SDS011;11070;51.336;12.340;2023-02-01T00:19:05;11.63;;;6.38;;
2061;SDS011;11070;51.336;12.340;2023-02-01T00:21:36;12.07;;;5.57;;
2061;SDS011;11070;51.336;12.340;2023-02-01T00:24:02;13.77;;;6.10;;
2061;SDS011;11070;51.336;12.340;2023-02-01T00:26:35;11.73;;;6.28;;
2061;SDS011;11070;51.336;12.340;2023-02-01T00:29:04;12.38;;;5.45;;
2061;SDS011;11070;51.336;12.340;2023-02-01T00:31:31;10.80;;;6.25;;
2061;SDS011;11070;51.336;12.340;2023-02-01T00:33:57;11.93;;;5.30;;
2061;SDS011;11070;51.336;12.340;2023-02-01T00:36:23;10.80;;;5.82;;
2061;SDS011;11070;51.336;12.340;2023-02-01T00:38:49;12.33;;;5.70;;
2061;SDS011;11070;51.336;12.340;2023-02-01T00:41:15;9.27;;;4.47;;
2061;SDS011;11070;51.336;12.340;2023-02-01T00:43:43;9.80;;;4.78;;
2061;SDS011;11070;51.336;12.340;2023-02-01T00:46:10;9.90;;;4.38;;
2061;SDS011;11070;51.336;12.340;2023-02-01T00:48:36;7.97;;;4.88;;
2061;SDS011;11070;51.336;12.340;2023-02-01T00:51:06;8.25;;;4.53;;
2061;SDS011;11070;51.336;12.340;2023-02-01T00:53:34;10.82;;;4.40;;
2061;SDS011;11070;51.336;12.340;2023-02-01T00:56:00;11.40;;;4.05;;
2061;SDS011;11070;51.336;12.340;2023-02-01T00:58:26;7.03;;;4.13;;
2061;SDS011;11070;51.336;12.340;2023-02-01T01:01:05;14.15;;;4.85;;
2061;SDS011;11070;51.336;12.340;2023-02-01T01:03:40;8.20;;;4.63;;
2061;SDS011;11070;51.336;12.340;2023-02-01T01:06:09;4.55;;;3.90;;
2061;SDS011;11070;51.336;12.340;2023-02-01T01:08:37;10.80;;;6.07;;
2061;SDS011;11070;51.336;12.340;2023-02-01T01:11:05;8.32;;;4.70;;
2061;SDS011;11070;51.336;12.340;2023-02-01T01:13:35;6.97;;;4.00;;
2061;SDS011;11070;51.336;12.340;2023-02-01T01:16:02;7.80;;;4.55;;
2061;SDS011;11070;51.336;12.340;2023-02-01T01:18:29;7.90;;;4.38;;
2061;SDS011;11070;51.336;12.340;2023-02-01T01:20:56;10.20;;;4.82;;
2061;SDS011;11070;51.336;12.340;2023-02-01T01:23:21;9.40;;;4.67;;
2061;SDS011;11070;51.336;12.340;2023-02-01T01:25:47;8.33;;;5.13;;
2061;SDS011;11070;51.336;12.340;2023-02-01T01:28:13;8.53;;;4.73;;
2061;SDS011;11070;51.336;12.340;2023-02-01T01:30:38;6.40;;;4.50;;
2061;SDS011;11070;51.336;12.340;2023-02-01T01:33:04;9.52;;;4.43;;
2061;SDS011;11070;51.336;12.340;2023-02-01T01:35:31;9.40;;;4.60;;
2061;SDS011;11070;51.336;12.340;2023-02-01T01:37:58;9.20;;;5.55;;
2061;SDS011;11070;51.336;12.340;2023-02-01T01:40:24;6.80;;;4.95;;
2061;SDS011;11070;51.336;12.340;2023-02-01T01:42:50;13.27;;;5.43;;
2061;SDS011;11070;51.336;12.340;2023-02-01T01:45:30;9.68;;;5.05;;
2061;SDS011;11070;51.336;12.340;2023-02-01T01:48:04;11.40;;;4.30;;
2061;SDS011;11070;51.336;12.340;2023-02-01T01:50:36;15.38;;;4.78;;
2061;SDS011;11070;51.336;12.340;2023-02-01T01:53:19;10.13;;;4.50;;
2061;SDS011;11070;51.336;12.340;2023-02-01T01:55:49;9.43;;;4.90;;
2061;SDS011;11070;51.336;12.340;2023-02-01T01:58:17;9.00;;;4.78;;
2061;SDS011;11070;51.336;12.340;2023-02-01T02:00:45;11.00;;;4.57;;
2061;SDS011;11070;51.336;12.340;2023-02-01T02:03:19;8.48;;;5.00;;
2061;SDS011;11070;51.336;12.340;2023-02-01T02:05:50;9.40;;;4.90;;
2061;SDS011;11070;51.336;12.340;2023-02-01T02:08:22;8.18;;;4.80;;
2061;SDS011;11070;51.336;12.340;2023-02-01T02:10:51;10.63;;;5.35;;
2061;SDS011;11070;51.336;12.340;2023-02-01T02:13:27;7.28;;;4.32;;
2061;SDS011;11070;51.336;12.340;2023-02-01T02:38:11;13.38;;;4.28;;
2061;SDS011;11070;51.336;12.340;2023-02-01T02:41:06;8.32;;;5.50;;
2061;SDS011;11070;51.336;12.340;2023-02-01T02:43:35;9.05;;;4.57;;
2061;SDS011;11070;51.336;12.340;2023-02-01T02:46:36;8.68;;;4.70;;
2061;SDS011;11070;51.336;12.340;2023-02-01T02:49:27;6.65;;;4.65;;
2061;SDS011;11070;51.336;12.340;2023-02-01T02:51:59;7.82;;;4.97;;
2061;SDS011;11070;51.336;12.340;2023-02-01T02:54:50;8.25;;;4.18;;
2061;SDS011;11070;51.336;12.340;2023-02-01T02:57:30;9.20;;;4.20;;
2061;SDS011;11070;51.336;12.340;2023-02-01T03:00:27;10.60;;;5.18;;
2061;SDS011;11070;51.336;12.340;2023-02-01T03:03:13;8.40;;;4.95;;
2061;SDS011;11070;51.336;12.340;2023-02-01T03:05:57;10.15;;;4.65;;
2061;SDS011;11070;51.336;12.340;2023-02-01T03:08:25;9.38;;;4.05;;
2061;SDS011;11070;51.336;12.340;2023-02-01T03:21:21;5.70;;;3.80;;
2061;SDS011;11070;51.336;12.340;2023-02-01T03:23:55;10.18;;;4.13;;
2061;SDS011;11070;51.336;12.340;2023-02-01T03:26:27;10.80;;;4.65;;
2061;SDS011;11070;51.336;12.340;2023-02-01T03:28:57;7.50;;;3.78;;
2061;SDS011;11070;51.336;12.340;2023-02-01T03:31:30;7.85;;;4.97;;
2061;SDS011;11070;51.336;12.340;2023-02-01T03:33:56;7.85;;;4.47;;
2061;SDS011;11070;51.336;12.340;2023-02-01T03:36:40;11.55;;;5.03;;
2061;SDS011;11070;51.336;12.340;2023-02-01T03:39:16;15.27;;;5.15;;
2061;SDS011;11070;51.336;12.340;2023-02-01T03:41:56;10.35;;;4.32;;
2061;SDS011;11070;51.336;12.340;2023-02-01T03:44:32;8.77;;;4.68;;
2061;SDS011;11070;51.336;12.340;2023-02-01T03:47:10;17.33;;;4.85;;
2061;SDS011;11070;51.336;12.340;2023-02-01T03:49:46;8.18;;;4.15;;
2061;SDS011;11070;51.336;12.340;2023-02-01T03:52:22;8.93;;;4.50;;
2061;SDS011;11070;51.336;12.340;2023-02-01T03:54:57;8.55;;;3.80;;
2061;SDS011;11070;51.336;12.340;2023-02-01T03:57:29;5.85;;;3.78;;
2061;SDS011;11070;51.336;12.340;2023-02-01T04:00:09;7.22;;;4.05;;
2061;SDS011;11070;51.336;12.340;2023-02-01T04:02:43;6.10;;;4.03;;
2061;SDS011;11070;51.336;12.340;2023-02-01T04:05:09;13.40;;;5.27;;
2061;SDS011;11070;51.336;12.340;2023-02-01T04:07:34;9.67;;;4.50;;
2061;SDS011;11070;51.336;12.340;2023-02-01T04:10:00;10.40;;;4.33;;
2061;SDS011;11070;51.336;12.340;2023-02-01T04:12:26;8.47;;;4.37;;
2061;SDS011;11070;51.336;12.340;2023-02-01T04:14:51;9.07;;;4.57;;
2061;SDS011;11070;51.336;12.340;2023-02-01T04:17:17;9.43;;;4.30;;
2061;SDS011;11070;51.336;12.340;2023-02-01T04:19:43;11.85;;;4.68;;
2061;SDS011;11070;51.336;12.340;2023-02-01T04:22:09;7.53;;;4.60;;
2061;SDS011;11070;51.336;12.340;2023-02-01T04:24:34;13.07;;;4.37;;
2061;SDS011;11070;51.336;12.340;2023-02-01T04:27:01;8.80;;;4.20;;
2061;SDS011;11070;51.336;12.340;2023-02-01T04:29:27;7.10;;;3.97;;
2061;SDS011;11070;51.336;12.340;2023-02-01T04:31:53;12.20;;;4.87;;
2061;SDS011;11070;51.336;12.340;2023-02-01T04:34:19;10.17;;;4.67;;
2061;SDS011;11070;51.336;12.340;2023-02-01T04:36:44;7.60;;;4.30;;
2061;SDS011;11070;51.336;12.340;2023-02-01T04:39:10;10.60;;;4.20;;
2061;SDS011;11070;51.336;12.340;2023-02-01T04:41:36;9.33;;;3.83;;
2061;SDS011;11070;51.336;12.340;2023-02-01T04:44:01;11.57;;;4.37;;
2061;SDS011;11070;51.336;12.340;2023-02-01T04:46:27;8.30;;;4.10;;
2061;SDS011;11070;51.336;12.340;2023-02-01T04:48:53;14.77;;;3.90;;
2061;SDS011;11070;51.336;12.340;2023-02-01T04:51:18;8.83;;;4.37;;
2061;SDS011;11070;51.336;12.340;2023-02-01T04:53:44;12.73;;;3.93;;
2061;SDS011;11070;51.336;12.340;2023-02-01T04:56:10;7.50;;;3.73;;
2061;SDS011;11070;51.336;12.340;2023-02-01T04:58:35;10.00;;;3.60;;
2061;SDS011;11070;51.336;12.340;2023-02-01T05:01:05;8.07;;;3.50;;
2061;SDS011;11070;51.336;12.340;2023-02-01T05:03:34;6.88;;;3.90;;
2061;SDS011;11070;51.336;12.340;2023-02-01T05:06:00;11.90;;;4.30;;
2061;SDS011;11070;51.336;12.340;2023-02-01T05:08:28;8.23;;;4.63;;
2061;SDS011;11070;51.336;12.340;2023-02-01T05:10:54;9.70;;;4.67;;
2061;SDS011;11070;51.336;12.340;2023-02-01T05:13:20;11.43;;;3.90;;
2061;SDS011;11070;51.336;12.340;2023-02-01T05:16:04;9.93;;;4.82;;
2061;SDS011;11070;51.336;12.340;2023-02-01T05:18:30;10.80;;;4.57;;
2061;SDS011;11070;51.336;12.340;2023-02-01T05:20:55;14.90;;;4.70;;
2061;SDS011;11070;51.336;12.340;2023-02-01T05:23:21;9.60;;;5.10;;
2061;SDS011;11070;51.336;12.340;2023-02-01T05:25:47;11.57;;;4.67;;
2061;SDS011;11070;51.336;12.340;2023-02-01T05:28:13;10.43;;;4.43;;
2061;SDS011;11070;51.336;12.340;2023-02-01T05:30:38;9.00;;;5.20;;
2061;SDS011;11070;51.336;12.340;2023-02-01T05:33:04;11.07;;;5.63;;
2061;SDS011;11070;51.336;12.340;2023-02-01T05:35:30;7.93;;;4.90;;
2061;SDS011;11070;51.336;12.340;2023-02-01T05:37:55;8.63;;;4.70;;
2061;SDS011;11070;51.336;12.340;2023-02-01T05:40:21;12.43;;;4.80;;
2061;SDS011;11070;51.336;12.340;2023-02-01T05:42:47;11.03;;;4.50;;
2061;SDS011;11070;51.336;12.340;2023-02-01T05:45:13;9.80;;;5.17;;
2061;SDS011;11070;51.336;12.340;2023-02-01T05:47:39;12.00;;;5.40;;
2061;SDS011;11070;51.336;12.340;2023-02-01T05:50:05;9.77;;;5.13;;
2061;SDS011;11070;51.336;12.340;2023-02-01T05:52:31;15.32;;;5.05;;
2061;SDS011;11070;51.336;12.340;2023-02-01T05:54:57;9.43;;;5.17;;
2061;SDS011;11070;51.336;12.340;2023-02-01T05:57:23;11.33;;;5.57;;
2061;SDS011;11070;51.336;12.340;2023-02-01T05:59:48;13.63;;;4.70;;
2061;SDS011;11070;51.336;12.340;2023-02-01T06:02:15;11.97;;;5.27;;
2061;SDS011;11070;51.336;12.340;2023-02-01T06:04:41;15.43;;;4.30;;
2061;SDS011;11070;51.336;12.340;2023-02-01T06:07:07;6.37;;;4.20;;
2061;SDS011;11070;51.336;12.340;2023-02-01T06:09:34;10.93;;;4.45;;
2061;SDS011;11070;51.336;12.340;2023-02-01T06:12:00;12.50;;;4.88;;
2061;SDS011;11070;51.336;12.340;2023-02-01T06:14:26;8.60;;;4.43;;
2061;SDS011;11070;51.336;12.340;2023-02-01T06:16:52;9.35;;;4.38;;
2061;SDS011;11070;51.336;12.340;2023-02-01T06:19:19;13.48;;;4.75;;
2061;SDS011;11070;51.336;12.340;2023-02-01T06:21:45;10.10;;;4.47;;
2061;SDS011;11070;51.336;12.340;2023-02-01T06:24:10;9.70;;;5.27;;
2061;SDS011;11070;51.336;12.340;2023-02-01T06:26:36;10.20;;;4.67;;
2061;SDS011;11070;51.336;12.340;2023-02-01T06:29:04;10.23;;;4.78;;
2061;SDS011;11070;51.336;12.340;2023-02-01T06:31:31;7.85;;;4.50;;
2061;SDS011;11070;51.336;12.340;2023-02-01T06:33:57;8.52;;;5.03;;
2061;SDS011;11070;51.336;12.340;2023-02-01T06:36:23;10.80;;;4.43;;
2061;SDS011;11070;51.336;12.340;2023-02-01T06:38:49;9.37;;;4.90;;
2061;SDS011;11070;51.336;12.340;2023-02-01T06:41:15;10.03;;;4.00;;
2061;SDS011;11070;51.336;12.340;2023-02-01T06:43:41;9.68;;;5.03;;
2061;SDS011;11070;51.336;12.340;2023-02-01T06:46:10;9.35;;;4.45;;
2061;SDS011;11070;51.336;12.340;2023-02-01T06:48:37;9.52;;;4.60;;
2061;SDS011;11070;51.336;12.340;2023-02-01T06:51:03;10.90;;;5.13;;
2061;SDS011;11070;51.336;12.340;2023-02-01T06:53:29;11.25;;;5.15;;
2061;SDS011;11070;51.336;12.340;2023-02-01T06:55:59;14.88;;;5.72;;
2061;SDS011;11070;51.336;12.340;2023-02-01T06:58:30;13.00;;;5.05;;
2061;SDS011;11070;51.336;12.340;2023-02-01T07:00:58;8.65;;;5.22;;
2061;SDS011;11070;51.336;12.340;2023-02-01T07:03:29;7.30;;;5.25;;
2061;SDS011;11070;51.336;12.340;2023-02-01T07:05:55;13.73;;;5.80;;
2061;SDS011;11070;51.336;12.340;2023-02-01T07:08:23;7.80;;;4.75;;
2061;SDS011;11070;51.336;12.340;2023-02-01T07:10:50;7.97;;;4.88;;
2061;SDS011;11070;51.336;12.340;2023-02-01T07:13:15;13.80;;;5.27;;
2061;SDS011;11070;51.336;12.340;2023-02-01T07:15:41;11.27;;;5.30;;
2061;SDS011;11070;51.336;12.340;2023-02-01T07:18:07;15.63;;;5.23;;
2061;SDS011;11070;51.336;12.340;2023-02-01T07:20:32;7.53;;;4.80;;
2061;SDS011;11070;51.336;12.340;2023-02-01T07:22:58;10.53;;;5.33;;
2061;SDS011;11070;51.336;12.340;2023-02-01T07:25:24;7.80;;;4.60;;
2061;SDS011;11070;51.336;12.340;2023-02-01T07:27:49;10.57;;;5.37;;
2061;SDS011;11070;51.336;12.340;2023-02-01T07:30:15;8.70;;;4.90;;
2061;SDS011;11070;51.336;12.340;2023-02-01T07:32:41;11.67;;;4.60;;
2061;SDS011;11070;51.336;12.340;2023-02-01T07:35:07;14.17;;;4.80;;
2061;SDS011;11070;51.336;12.340;2023-02-01T07:37:32;12.13;;;4.87;;
2061;SDS011;11070;51.336;12.340;2023-02-01T07:39:58;11.63;;;5.00;;
2061;SDS011;11070;51.336;12.340;2023-02-01T07:42:24;8.03;;;4.70;;
2061;SDS011;11070;51.336;12.340;2023-02-01T07:44:49;11.70;;;5.50;;
2061;SDS011;11070;51.336;12.340;2023-02-01T07:47:15;11.07;;;5.50;;
2061;SDS011;11070;51.336;12.340;2023-02-01T07:49:40;12.33;;;4.80;;
2061;SDS011;11070;51.336;12.340;2023-02-01T07:52:06;16.40;;;5.30;;
2061;SDS011;11070;51.336;12.340;2023-02-01T07:54:32;10.97;;;5.90;;
2061;SDS011;11070;51.336;12.340;2023-02-01T07:56:57;13.73;;;5.00;;
2061;SDS011;11070;51.336;12.340;2023-02-01T07:59:23;8.30;;;5.00;;
2061;SDS011;11070;51.336;12.340;2023-02-01T08:01:49;13.43;;;6.83;;
2061;SDS011;11070;51.336;12.340;2023-02-01T08:04:14;9.20;;;5.40;;
2061;SDS011;11070;51.336;12.340;2023-02-01T08:06:40;9.07;;;5.93;;
2061;SDS011;11070;51.336;12.340;2023-02-01T08:09:06;7.70;;;5.57;;
2061;SDS011;11070;51.336;12.340;2023-02-01T08:11:36;11.93;;;5.25;;
2061;SDS011;11070;51.336;12.340;2023-02-01T08:14:03;14.77;;;5.88;;
2061;SDS011;11070;51.336;12.340;2023-02-01T08:16:29;22.33;;;13.40;;
2061;SDS011;11070;51.336;12.340;2023-02-01T08:18:55;24.60;;;10.40;;
2061;SDS011;11070;51.336;12.340;2023-02-01T08:21:22;20.33;;;10.23;;
2061;SDS011;11070;51.336;12.340;2023-02-01T08:23:50;11.55;;;7.43;;
2061;SDS011;11070;51.336;12.340;2023-02-01T08:26:20;12.27;;;6.45;;
2061;SDS011;11070;51.336;12.340;2023-02-01T08:28:51;11.15;;;6.68;;
2061;SDS011;11070;51.336;12.340;2023-02-01T08:31:19;16.15;;;6.95;;
2061;SDS011;11070;51.336;12.340;2023-02-01T08:33:53;13.80;;;6.07;;
2061;SDS011;11070;51.336;12.340;2023-02-01T08:36:20;10.30;;;6.50;;
2061;SDS011;11070;51.336;12.340;2023-02-01T08:38:47;15.70;;;8.85;;
2061;SDS011;11070;51.336;12.340;2023-02-01T08:41:14;17.83;;;9.93;;
2061;SDS011;11070;51.336;12.340;2023-02-01T08:43:44;12.85;;;7.55;;
2061;SDS011;11070;51.336;12.340;2023-02-01T08:46:10;17.77;;;9.30;;
2061;SDS011;11070;51.336;12.340;2023-02-01T08:48:37;20.08;;;8.10;;
2061;SDS011;11070;51.336;12.340;2023-02-01T08:51:10;14.82;;;7.38;;
2061;SDS011;11070;51.336;12.340;2023-02-01T08:53:37;17.05;;;9.27;;
2061;SDS011;11070;51.336;12.340;2023-02-01T08:56:06;19.90;;;8.55;;
2061;SDS011;11070;51.336;12.340;2023-02-01T08:58:32;18.10;;;8.57;;
2061;SDS011;11070;51.336;12.340;2023-02-01T09:01:02;12.20;;;6.28;;
2061;SDS011;11070;51.336;12.340;2023-02-01T09:03:35;14.30;;;7.00;;
2061;SDS011;11070;51.336;12.340;2023-02-01T09:06:02;9.30;;;6.75;;
2061;SDS011;11070;51.336;12.340;2023-02-01T09:08:29;14.63;;;7.88;;
2061;SDS011;11070;51.336;12.340;2023-02-01T09:11:05;13.85;;;8.10;;
2061;SDS011;11070;51.336;12.340;2023-02-01T09:13:32;12.40;;;8.05;;
2061;SDS011;11070;51.336;12.340;2023-02-01T09:15:59;13.75;;;6.85;;
2061;SDS011;11070;51.336;12.340;2023-02-01T09:18:25;17.40;;;8.90;;
2061;SDS011;11070;51.336;12.340;2023-02-01T09:20:51;14.88;;;8.35;;
2061;SDS011;11070;51.336;12.340;2023-02-01T09:23:16;11.70;;;7.70;;
2061;SDS011;11070;51.336;12.340;2023-02-01T09:25:42;21.57;;;10.83;;
2061;SDS011;11070;51.336;12.340;2023-02-01T09:28:08;15.30;;;8.00;;
2061;SDS011;11070;51.336;12.340;2023-02-01T09:30:34;13.80;;;8.57;;
2061;SDS011;11070;51.336;12.340;2023-02-01T09:33:01;17.42;;;8.32;;
2061;SDS011;11070;51.336;12.340;2023-02-01T09:35:27;12.82;;;7.05;;
2061;SDS011;11070;51.336;12.340;2023-02-01T09:37:53;12.73;;;7.20;;
2061;SDS011;11070;51.336;12.340;2023-02-01T09:40:19;15.27;;;7.22;;
2061;SDS011;11070;51.336;12.340;2023-02-01T09:42:48;15.52;;;8.00;;
2061;SDS011;11070;51.336;12.340;2023-02-01T09:47:55;13.60;;;6.95;;
2061;SDS011;11070;51.336;12.340;2023-02-01T09:50:33;9.02;;;5.90;;
2061;SDS011;11070;51.336;12.340;2023-02-01T09:53:06;14.35;;;7.13;;
2061;SDS011;11070;51.336;12.340;2023-02-01T09:55:45;9.82;;;6.13;;
2061;SDS011;11070;51.336;12.340;2023-02-01T09:58:22;11.85;;;6.47;;
2061;SDS011;11070;51.336;12.340;2023-02-01T10:01:02;15.15;;;6.65;;
2061;SDS011;11070;51.336;12.340;2023-02-01T10:03:31;16.48;;;6.50;;
2061;SDS011;11070;51.336;12.340;2023-02-01T10:08:56;12.10;;;6.38;;
2061;SDS011;11070;51.336;12.340;2023-02-01T10:11:39;13.30;;;6.43;;
2061;SDS011;11070;51.336;12.340;2023-02-01T10:22:54;10.35;;;6.40;;
2061;SDS011;11070;51.336;12.340;2023-02-01T10:25:53;11.95;;;6.93;;
2061;SDS011;11070;51.336;12.340;2023-02-01T10:28:20;12.18;;;6.38;;
2061;SDS011;11070;51.336;12.340;2023-02-01T10:30:49;12.23;;;6.93;;
2061;SDS011;11070;51.336;12.340;2023-02-01T10:33:27;9.45;;;5.80;;
2061;SDS011;11070;51.336;12.340;2023-02-01T10:36:16;16.70;;;8.40;;
2061;SDS011;11070;51.336;12.340;2023-02-01T10:38:46;16.17;;;8.15;;
2061;SDS011;11070;51.336;12.340;2023-02-01T10:41:13;13.83;;;5.90;;
2061;SDS011;11070;51.336;12.340;2023-02-01T10:43:48;13.02;;;7.07;;
2061;SDS011;11070;51.336;12.340;2023-02-01T10:46:18;9.13;;;5.45;;
2061;SDS011;11070;51.336;12.340;2023-02-01T10:48:43;7.20;;;5.00;;
2061;SDS011;11070;51.336;12.340;2023-02-01T10:51:30;8.05;;;4.85;;
2061;SDS011;11070;51.336;12.340;2023-02-01T10:54:22;8.85;;;4.10;;
2061;SDS011;11070;51.336;12.340;2023-02-01T10:56:58;8.05;;;4.00;;
2061;SDS011;11070;51.336;12.340;2023-02-01T10:59:24;10.30;;;5.03;;
2061;SDS011;11070;51.336;12.340;2023-02-01T11:01:58;6.13;;;3.92;;
2061;SDS011;11070;51.336;12.340;2023-02-01T11:04:25;8.77;;;4.05;;
2061;SDS011;11070;51.336;12.340;2023-02-01T11:07:05;7.40;;;4.60;;
2061;SDS011;11070;51.336;12.340;2023-02-01T11:09:41;7.80;;;4.38;;
2061;SDS011;11070;51.336;12.340;2023-02-01T11:12:32;6.57;;;3.42;;
2061;SDS011;11070;51.336;12.340;2023-02-01T11:15:01;6.93;;;3.90;;
2061;SDS011;11070;51.336;12.340;2023-02-01T11:17:28;9.23;;;3.83;;
2061;SDS011;11070;51.336;12.340;2023-02-01T11:19:59;8.45;;;4.97;;
2061;SDS011;11070;51.336;12.340;2023-02-01T11:22:26;5.63;;;3.83;;
2061;SDS011;11070;51.336;12.340;2023-02-01T11:24:54;7.18;;;4.18;;
2061;SDS011;11070;51.336;12.340;2023-02-01T11:27:22;8.60;;;4.35;;
2061;SDS011;11070;51.336;12.340;2023-02-01T11:29:50;4.35;;;3.95;;
2061;SDS011;11070;51.336;12.340;2023-02-01T11:32:19;7.35;;;4.30;;
2061;SDS011;11070;51.336;12.340;2023-02-01T11:34:48;7.53;;;4.32;;
2061;SDS011;11070;51.336;12.340;2023-02-01T11:37:34;9.10;;;4.00;;
2061;SDS011;11070;51.336;12.340;2023-02-01T11:42:52;8.05;;;3.90;;
2061;SDS011;11070;51.336;12.340;2023-02-01T11:45:33;11.65;;;4.30;;
2061;SDS011;11070;51.336;12.340;2023-02-01T11:47:59;5.22;;;3.67;;
2061;SDS011;11070;51.336;12.340;2023-02-01T11:58:12;8.82;;;4.10;;
2061;SDS011;11070;51.336;12.340;2023-02-01T12:04:16;11.07;;;4.00;;
2061;SDS011;11070;51.336;12.340;2023-02-01T12:06:55;10.98;;;4.40;;
2061;SDS011;11070;51.336;12.340;2023-02-01T12:12:24;6.40;;;3.92;;
2061;SDS011;11070;51.336;12.340;2023-02-01T12:15:08;12.18;;;4.45;;
2061;SDS011;11070;51.336;12.340;2023-02-01T12:34:31;9.90;;;4.65;;
2061;SDS011;11070;51.336;12.340;2023-02-01T12:37:14;10.40;;;4.82;;
2061;SDS011;11070;51.336;12.340;2023-02-01T12:39:48;10.35;;;4.63;;
2061;SDS011;11070;51.336;12.340;2023-02-01T12:42:37;6.80;;;3.75;;
2061;SDS011;11070;51.336;12.340;2023-02-01T12:48:21;6.72;;;3.97;;
2061;SDS011;11070;51.336;12.340;2023-02-01T12:51:00;3.58;;;3.00;;
2061;SDS011;11070;51.336;12.340;2023-02-01T12:53:42;7.82;;;3.55;;
2061;SDS011;11070;51.336;12.340;2023-02-01T12:56:11;7.97;;;3.70;;
2061;SDS011;11070;51.336;12.340;2023-02-01T12:58:52;6.50;;;3.28;;
2061;SDS011;11070;51.336;12.340;2023-02-01T13:01:40;11.48;;;3.60;;
2061;SDS011;11070;51.336;12.340;2023-02-01T13:04:13;7.68;;;3.70;;
2061;SDS011;11070;51.336;12.340;2023-02-01T13:06:51;5.75;;;3.20;;
2061;SDS011;11070;51.336;12.340;2023-02-01T13:09:25;5.15;;;3.22;;
2061;SDS011;11070;51.336;12.340;2023-02-01T13:12:06;7.82;;;3.20;;
2061;SDS011;11070;51.336;12.340;2023-02-01T13:14:40;10.25;;;3.35;;
2061;SDS011;11070;51.336;12.340;2023-02-01T13:17:13;11.02;;;3.40;;
2061;SDS011;11070;51.336;12.340;2023-02-01T13:22:23;7.18;;;3.03;;
2061;SDS011;11070;51.336;12.340;2023-02-01T13:25:04;10.27;;;3.50;;
2061;SDS011;11070;51.336;12.340;2023-02-01T13:27:43;5.82;;;3.28;;
2061;SDS011;11070;51.336;12.340;2023-02-01T13:30:16;7.47;;;3.55;;
2061;SDS011;11070;51.336;12.340;2023-02-01T13:35:55;5.53;;;3.65;;
2061;SDS011;11070;51.336;12.340;2023-02-01T13:38:50;8.18;;;3.42;;
2061;SDS011;11070;51.336;12.340;2023-02-01T13:41:57;11.07;;;4.35;;
2061;SDS011;11070;51.336;12.340;2023-02-01T13:46:56;7.35;;;3.53;;
2061;SDS011;11070;51.336;12.340;2023-02-01T13:49:24;6.80;;;3.63;;
2061;SDS011;11070;51.336;12.340;2023-02-01T13:51:53;7.00;;;3.30;;
2061;SDS011;11070;51.336;12.340;2023-02-01T13:54:33;4.28;;;3.38;;
2061;SDS011;11070;51.336;12.340;2023-02-01T13:57:03;9.30;;;3.88;;
2061;SDS011;11070;51.336;12.340;2023-02-01T13:59:37;6.50;;;3.58;;
2061;SDS011;11070;51.336;12.340;2023-02-01T14:13:27;6.25;;;4.07;;
2061;SDS011;11070;51.336;12.340;2023-02-01T14:23:48;11.88;;;4.57;;
2061;SDS011;11070;51.336;12.340;2023-02-01T14:29:37;10.85;;;5.45;;
2061;SDS011;11070;51.336;12.340;2023-02-01T14:32:06;11.40;;;4.82;;
2061;SDS011;11070;51.336;12.340;2023-02-01T14:37:23;10.20;;;4.38;;
2061;SDS011;11070;51.336;12.340;2023-02-01T14:39:57;12.60;;;5.28;;
2061;SDS011;11070;51.336;12.340;2023-02-01T14:47:49;8.18;;;4.72;;
2061;SDS011;11070;51.336;12.340;2023-02-01T14:50:38;6.88;;;4.65;;
2061;SDS011;11070;51.336;12.340;2023-02-01T15:06:42;9.45;;;4.57;;
2061;SDS011;11070;51.336;12.340;2023-02-01T15:09:11;9.85;;;5.10;;
2061;SDS011;11070;51.336;12.340;2023-02-01T15:15:30;7.80;;;4.80;;
2061;SDS011;11070;51.336;12.340;2023-02-01T15:17:50;13.50;;;5.47;;
2061;SDS011;11070;51.336;12.340;2023-02-01T15:20:19;10.90;;;5.13;;
2061;SDS011;11070;51.336;12.340;2023-02-01T15:25:25;9.77;;;5.28;;
2061;SDS011;11070;51.336;12.340;2023-02-01T15:27:53;5.85;;;4.57;;
2061;SDS011;11070;51.336;12.340;2023-02-01T15:30:20;6.65;;;4.80;;
2061;SDS011;11070;51.336;12.340;2023-02-01T15:32:49;8.60;;;4.88;;
2061;SDS011;11070;51.336;12.340;2023-02-01T15:35:31;7.80;;;5.10;;
2061;SDS011;11070;51.336;12.340;2023-02-01T15:41:31;7.00;;;4.80;;
2061;SDS011;11070;51.336;12.340;2023-02-01T15:46:24;9.15;;;4.72;;
2061;SDS011;11070;51.336;12.340;2023-02-01T15:49:01;8.50;;;4.85;;
2061;SDS011;11070;51.336;12.340;2023-02-01T15:51:28;6.15;;;4.80;;
2061;SDS011;11070;51.336;12.340;2023-02-01T15:54:17;8.07;;;4.80;;
2061;SDS011;11070;51.336;12.340;2023-02-01T15:56:56;7.20;;;4.57;;
2061;SDS011;11070;51.336;12.340;2023-02-01T15:59:29;6.38;;;4.65;;
2061;SDS011;11070;51.336;12.340;2023-02-01T16:02:00;12.43;;;5.90;;
2061;SDS011;11070;51.336;12.340;2023-02-01T16:04:27;14.77;;;6.10;;
2061;SDS011;11070;51.336;12.340;2023-02-01T16:06:59;6.80;;;2.78;;
2061;SDS011;11070;51.336;12.340;2023-02-01T16:09:46;2.10;;;2.00;;
2061;SDS011;11070;51.336;12.340;2023-02-01T16:12:22;3.88;;;2.30;;
2061;SDS011;11070;51.336;12.340;2023-02-01T16:14:49;2.42;;;2.05;;
2061;SDS011;11070;51.336;12.340;2023-02-01T16:17:14;2.17;;;1.70;;
2061;SDS011;11070;51.336;12.340;2023-02-01T16:19:40;2.60;;;1.90;;
2061;SDS011;11070;51.336;12.340;2023-02-01T16:22:06;3.07;;;2.30;;
2061;SDS011;11070;51.336;12.340;2023-02-01T16:24:31;3.70;;;1.60;;
2061;SDS011;11070;51.336;12.340;2023-02-01T16:26:58;3.27;;;2.10;;
2061;SDS011;11070;51.336;12.340;2023-02-01T16:29:23;1.73;;;1.50;;
2061;SDS011;11070;51.336;12.340;2023-02-01T16:31:49;2.23;;;2.03;;
2061;SDS011;11070;51.336;12.340;2023-02-01T16:34:15;5.15;;;2.90;;
2061;SDS011;11070;51.336;12.340;2023-02-01T16:36:42;2.88;;;2.60;;
2061;SDS011;11070;51.336;12.340;2023-02-01T16:39:10;2.97;;;2.03;;
2061;SDS011;11070;51.336;12.340;2023-02-01T16:41:37;3.72;;;2.60;;
2061;SDS011;11070;51.336;12.340;2023-02-01T16:44:04;4.20;;;2.50;;
2061;SDS011;11070;51.336;12.340;2023-02-01T16:46:32;2.20;;;2.00;;
2061;SDS011;11070;51.336;12.340;2023-02-01T16:49:00;3.92;;;2.35;;
2061;SDS011;11070;51.336;12.340;2023-02-01T16:51:28;3.15;;;2.10;;
2061;SDS011;11070;51.336;12.340;2023-02-01T16:53:57;2.95;;;2.45;;
2061;SDS011;11070;51.336;12.340;2023-02-01T16:56:25;4.57;;;3.08;;
2061;SDS011;11070;51.336;12.340;2023-02-01T16:58:55;3.17;;;2.88;;
2061;SDS011;11070;51.336;12.340;2023-02-01T17:01:21;5.33;;;3.43;;
2061;SDS011;11070;51.336;12.340;2023-02-01T17:03:47;3.20;;;2.67;;
2061;SDS011;11070;51.336;12.340;2023-02-01T17:06:13;5.37;;;3.67;;
2061;SDS011;11070;51.336;12.340;2023-02-01T17:08:43;8.20;;;3.75;;
2061;SDS011;11070;51.336;12.340;2023-02-01T17:11:11;4.35;;;3.20;;
2061;SDS011;11070;51.336;12.340;2023-02-01T17:13:38;2.30;;;2.10;;
2061;SDS011;11070;51.336;12.340;2023-02-01T17:16:14;4.68;;;3.30;;
2061;SDS011;11070;51.336;12.340;2023-02-01T17:18:41;3.53;;;3.20;;
2061;SDS011;11070;51.336;12.340;2023-02-01T17:21:06;4.60;;;3.50;;
2061;SDS011;11070;51.336;12.340;2023-02-01T17:23:35;4.47;;;2.97;;
2061;SDS011;11070;51.336;12.340;2023-02-01T17:26:01;4.25;;;3.38;;
2061;SDS011;11070;51.336;12.340;2023-02-01T17:28:27;3.72;;;3.00;;